createdAt,value
2022-10-05T00:00:54.592Z,12.97
2022-10-05T00:03:22.657Z,12.98
2022-10-05T00:05:50.024Z,12.99
2022-10-05T00:08:22.534Z,12.98
2022-10-05T00:10:50.640Z,12.99
2022-10-05T00:13:21.759Z,12.99
2022-10-05T00:15:50.030Z,13.00
2022-10-05T00:18:19.943Z,12.98
2022-10-05T00:20:48.866Z,12.97
2022-10-05T00:23:29.370Z,12.97
2022-10-05T00:26:12.304Z,12.94
2022-10-05T00:28:41.391Z,12.94
2022-10-05T00:31:25.751Z,12.92
2022-10-05T00:33:56.583Z,12.93
2022-10-05T00:36:26.019Z,12.92
2022-10-05T00:38:53.307Z,12.92
2022-10-05T00:41:55.239Z,12.91
2022-10-05T00:44:50.737Z,12.92
2022-10-05T00:47:32.591Z,12.91
2022-10-05T00:50:42.604Z,12.91
2022-10-05T00:53:45.665Z,12.92
2022-10-05T00:56:18.616Z,12.93
2022-10-05T00:59:25.685Z,12.94
2022-10-05T01:02:31.874Z,12.94
2022-10-05T01:05:54.920Z,12.92
2022-10-05T01:09:27.931Z,12.88
2022-10-05T01:12:37.245Z,12.80
2022-10-05T01:15:39.573Z,12.75
2022-10-05T01:18:25.908Z,12.71
2022-10-05T01:21:13.638Z,12.67
2022-10-05T01:24:05.386Z,12.62
2022-10-05T01:27:09.515Z,12.57
2022-10-05T01:30:12.247Z,12.51
2022-10-05T01:32:58.563Z,12.46
2022-10-05T01:35:38.237Z,12.42
2022-10-05T01:38:42.563Z,12.30
2022-10-05T01:41:55.052Z,12.26
2022-10-05T01:44:50.746Z,12.24
2022-10-05T01:47:37.432Z,12.25
2022-10-05T01:50:26.145Z,12.26
2022-10-05T01:53:37.803Z,12.26
2022-10-05T01:56:43.346Z,12.25
2022-10-05T01:59:46.812Z,12.26
2022-10-05T02:02:18.802Z,12.26
2022-10-05T02:05:02.932Z,12.27
2022-10-05T02:07:57.460Z,12.28
2022-10-05T02:10:44.575Z,12.33
2022-10-05T02:13:53.075Z,12.34
2022-10-05T02:16:44.113Z,12.38
2022-10-05T02:19:42.608Z,12.41
2022-10-05T02:22:27.585Z,12.46
2022-10-05T02:25:03.110Z,12.51
2022-10-05T02:27:36.744Z,12.51
2022-10-05T02:30:11.581Z,12.49
2022-10-05T02:33:33.729Z,12.44
2022-10-05T02:36:16.011Z,12.41
2022-10-05T02:39:26.485Z,12.38
2022-10-05T02:42:20.084Z,12.32
2022-10-05T02:45:26.236Z,12.26
2022-10-05T02:48:19.396Z,12.24
2022-10-05T02:51:28.811Z,12.22
2022-10-05T02:54:27.849Z,12.26
2022-10-05T02:57:23.944Z,12.30
2022-10-05T03:00:04.491Z,12.34
2022-10-05T03:02:52.965Z,12.33
2022-10-05T03:05:35.277Z,12.37
2022-10-05T03:08:17.102Z,12.39
2022-10-05T03:11:44.303Z,12.43
2022-10-05T03:14:43.238Z,12.44
2022-10-05T03:17:22.395Z,12.46
2022-10-05T03:20:19.733Z,12.43
2022-10-05T03:23:00.487Z,12.42
2022-10-05T03:25:48.285Z,12.39
2022-10-05T03:28:40.218Z,12.32
2022-10-05T03:31:25.199Z,12.31
2022-10-05T03:34:16.121Z,12.29
2022-10-05T03:36:56.667Z,12.25
2022-10-05T03:40:02.925Z,12.24
2022-10-05T03:43:03.654Z,12.20
2022-10-05T03:45:48.126Z,12.18
2022-10-05T03:48:30.564Z,12.17
2022-10-05T03:51:24.979Z,12.16
2022-10-05T03:54:05.606Z,12.16
2022-10-05T03:56:41.399Z,12.16
2022-10-05T03:59:16.897Z,12.14
2022-10-05T04:01:55.715Z,12.10
2022-10-05T04:04:34.758Z,12.09
2022-10-05T04:07:02.217Z,12.11
2022-10-05T04:09:38.409Z,12.10
2022-10-05T04:12:30.326Z,12.09
2022-10-05T04:15:06.841Z,12.10
2022-10-05T04:17:36.428Z,12.10
2022-10-05T04:20:38.259Z,12.13
2022-10-05T04:23:58.750Z,12.15
2022-10-05T04:26:43.591Z,12.16
2022-10-05T04:29:37.886Z,12.16
2022-10-05T04:32:37.821Z,12.11
2022-10-05T04:35:38.063Z,12.13
2022-10-05T04:38:26.734Z,12.11
2022-10-05T04:41:14.710Z,12.07
2022-10-05T04:44:13.785Z,12.07
2022-10-05T04:47:17.787Z,12.05
2022-10-05T04:49:47.547Z,12.04
2022-10-05T04:53:03.834Z,12.01
2022-10-05T04:55:55.607Z,11.97
2022-10-05T04:59:02.150Z,11.95
2022-10-05T05:01:54.857Z,11.94
2022-10-05T05:04:35.834Z,11.94
2022-10-05T05:07:21.459Z,11.91
2022-10-05T05:10:07.558Z,11.89
2022-10-05T05:13:12.722Z,11.86
2022-10-05T05:16:08.103Z,11.86
2022-10-05T05:19:01.939Z,11.84
2022-10-05T05:21:35.920Z,11.82
2022-10-05T05:24:33.807Z,11.81
2022-10-05T05:27:34.777Z,11.79
2022-10-05T05:30:24.666Z,11.76
2022-10-05T05:33:18.848Z,11.74
2022-10-05T05:36:23.356Z,11.73
2022-10-05T05:39:23.191Z,11.73
2022-10-05T05:42:25.040Z,11.70
2022-10-05T05:44:54.797Z,11.69
2022-10-05T05:47:38.358Z,11.67
2022-10-05T05:50:30.317Z,11.69
2022-10-05T05:53:24.995Z,11.70
2022-10-05T05:56:14.154Z,11.72
2022-10-05T05:59:16.965Z,11.72
2022-10-05T06:01:52.679Z,11.74
2022-10-05T06:04:28.635Z,11.74
2022-10-05T06:06:58.082Z,11.76
2022-10-05T06:09:43.241Z,11.78
2022-10-05T06:12:50.225Z,11.80
2022-10-05T06:15:43.750Z,11.82
2022-10-05T06:18:17.074Z,11.84
2022-10-05T06:21:19.685Z,11.85
2022-10-05T06:24:00.751Z,11.88
2022-10-05T06:26:52.221Z,11.90
2022-10-05T06:29:24.985Z,11.92
2022-10-05T06:32:27.531Z,11.93
2022-10-05T06:35:17.863Z,11.93
2022-10-05T06:38:49.994Z,11.92
2022-10-05T06:41:53.909Z,11.90
2022-10-05T06:45:03.953Z,11.88
2022-10-05T06:48:02.804Z,11.88
2022-10-05T06:51:50.516Z,11.87
2022-10-05T06:55:01.105Z,11.89
2022-10-05T06:57:49.130Z,11.91
2022-10-05T07:00:24.914Z,11.94
2022-10-05T07:03:47.294Z,11.95
2022-10-05T07:06:30.445Z,12.00
2022-10-05T07:09:16.428Z,12.02
2022-10-05T07:12:11.175Z,12.05
2022-10-05T07:14:58.353Z,12.11
2022-10-05T07:18:10.335Z,12.17
2022-10-05T07:21:18.912Z,12.21
2022-10-05T07:24:33.069Z,12.27
2022-10-05T07:27:23.745Z,12.36
2022-10-05T07:30:14.801Z,12.42
2022-10-05T07:33:13.241Z,12.50
2022-10-05T07:37:15.344Z,12.60
2022-10-05T07:40:03.995Z,12.66
2022-10-05T07:42:59.842Z,12.74
2022-10-05T07:45:52.989Z,12.82
2022-10-05T07:48:35.728Z,12.91
2022-10-05T07:51:34.177Z,13.01
2022-10-05T07:54:24.306Z,13.12
2022-10-05T07:57:29.465Z,13.23
2022-10-05T08:00:13.635Z,13.38
2022-10-05T08:02:55.408Z,13.51
2022-10-05T08:05:30.722Z,13.65
2022-10-05T08:08:31.970Z,13.77
2022-10-05T08:11:12.291Z,13.87
2022-10-05T08:14:06.158Z,13.95
2022-10-05T08:16:38.403Z,14.06
2022-10-05T08:19:37.131Z,14.12
2022-10-05T08:22:13.110Z,14.20
2022-10-05T08:25:04.460Z,14.25
2022-10-05T08:27:56.901Z,14.35
2022-10-05T08:30:24.678Z,14.39
2022-10-05T08:33:13.835Z,14.47
2022-10-05T08:35:51.474Z,14.55
2022-10-05T08:38:28.701Z,14.60
2022-10-05T08:41:52.709Z,14.65
2022-10-05T08:45:06.048Z,14.75
2022-10-05T08:48:09.930Z,14.82
2022-10-05T08:51:04.758Z,14.86
2022-10-05T08:54:11.154Z,14.94
2022-10-05T08:56:49.624Z,15.02
2022-10-05T08:59:34.955Z,15.09
2022-10-05T09:02:37.317Z,15.16
2022-10-05T09:05:37.933Z,15.24
2022-10-05T09:08:35.669Z,15.30
2022-10-05T09:11:03.955Z,15.36
2022-10-05T09:13:58.023Z,15.44
2022-10-05T09:16:44.193Z,15.51
2022-10-05T09:19:51.404Z,15.61
2022-10-05T09:22:39.026Z,15.69
2022-10-05T09:25:28.670Z,15.78
2022-10-05T09:28:03.504Z,15.84
2022-10-05T09:31:03.177Z,15.89
2022-10-05T09:34:06.444Z,15.99
2022-10-05T09:37:21.318Z,16.07
2022-10-05T09:40:20.338Z,16.17
2022-10-05T09:43:10.609Z,16.18
2022-10-05T09:46:03.976Z,16.24
2022-10-05T09:49:28.542Z,16.31
2022-10-05T09:52:15.147Z,16.40
2022-10-05T09:55:27.597Z,16.46
2022-10-05T09:58:28.337Z,16.56
2022-10-05T10:01:34.492Z,16.68
2022-10-05T10:04:32.515Z,16.77
2022-10-05T10:07:17.476Z,16.86
2022-10-05T10:10:29.260Z,16.89
2022-10-05T10:13:21.085Z,16.97
2022-10-05T10:16:31.808Z,17.05
2022-10-05T10:19:29.026Z,17.15
2022-10-05T10:22:52.090Z,17.26
2022-10-05T10:25:27.919Z,17.36
2022-10-05T10:28:25.640Z,17.44
2022-10-05T10:31:26.509Z,17.55
2022-10-05T10:34:28.692Z,17.67
2022-10-05T10:37:33.529Z,17.78
2022-10-05T10:40:30.670Z,17.90
2022-10-05T10:43:18.892Z,18.04
2022-10-05T10:46:30.878Z,18.20
2022-10-05T10:49:18.873Z,18.28
2022-10-05T10:52:24.637Z,18.42
2022-10-05T10:55:44.383Z,18.48
2022-10-05T10:59:01.949Z,18.62
2022-10-05T11:01:50.059Z,18.76
2022-10-05T11:04:38.087Z,18.82
2022-10-05T11:07:32.644Z,18.95
2022-10-05T11:10:29.150Z,19.03
2022-10-05T11:13:21.286Z,19.16
2022-10-05T11:16:15.942Z,19.29
2022-10-05T11:19:24.897Z,19.46
2022-10-05T11:22:41.470Z,19.53
2022-10-05T11:25:45.811Z,19.64
2022-10-05T11:28:59.009Z,19.72
2022-10-05T11:32:19.991Z,19.78
2022-10-05T11:35:07.551Z,19.93
2022-10-05T11:38:02.062Z,20.06
2022-10-05T11:41:06.297Z,20.12
2022-10-05T11:44:12.728Z,20.23
2022-10-05T11:46:55.404Z,20.33
2022-10-05T11:50:13.555Z,20.40
2022-10-05T11:53:13.779Z,20.61
2022-10-05T11:56:27.214Z,20.62
2022-10-05T11:59:09.138Z,20.72
2022-10-05T12:02:15.799Z,20.83
2022-10-05T12:05:21.459Z,20.86
2022-10-05T12:08:20.318Z,20.90
2022-10-05T12:11:30.648Z,20.98
2022-10-05T12:14:12.293Z,21.04
2022-10-05T12:17:05.733Z,21.03
2022-10-05T12:19:42.017Z,21.16
2022-10-05T12:22:37.295Z,21.19
2022-10-05T12:25:46.081Z,21.32
2022-10-05T12:28:23.374Z,21.42
2022-10-05T12:31:17.947Z,21.49
2022-10-05T12:33:58.339Z,21.60
2022-10-05T12:37:14.957Z,21.69
2022-10-05T12:40:30.526Z,21.78
2022-10-05T12:43:33.800Z,21.82
2022-10-05T12:46:32.469Z,21.92
2022-10-05T12:49:30.442Z,21.95
2022-10-05T12:52:28.195Z,22.01
2022-10-05T12:55:13.778Z,22.15
2022-10-05T12:57:58.192Z,22.22
2022-10-05T13:00:25.700Z,22.34
2022-10-05T13:03:32.004Z,22.37
2022-10-05T13:06:24.310Z,22.47
2022-10-05T13:09:12.887Z,22.50
2022-10-05T13:11:52.399Z,22.59
2022-10-05T13:14:43.339Z,22.63
2022-10-05T13:17:54.174Z,22.76
2022-10-05T13:20:40.398Z,22.84
2022-10-05T13:23:31.672Z,22.93
2022-10-05T13:26:07.785Z,23.00
2022-10-05T13:28:49.245Z,23.04
2022-10-05T13:31:40.856Z,23.06
2022-10-05T13:34:31.636Z,23.06
2022-10-05T13:37:27.881Z,23.03
2022-10-05T13:40:10.187Z,23.08
2022-10-05T13:43:20.199Z,23.10
2022-10-05T13:46:02.851Z,23.16
2022-10-05T13:48:47.712Z,23.23
2022-10-05T13:51:17.740Z,23.30
2022-10-05T13:54:30.377Z,23.30
2022-10-05T13:57:26.243Z,23.29
2022-10-05T14:00:02.664Z,23.30
2022-10-05T14:02:43.332Z,23.38
2022-10-05T14:05:29.051Z,23.43
2022-10-05T14:08:04.309Z,23.45
2022-10-05T14:10:43.936Z,23.45
2022-10-05T14:13:46.312Z,23.52
2022-10-05T14:16:13.300Z,23.47
2022-10-05T14:19:18.976Z,23.49
2022-10-05T14:22:01.675Z,23.53
2022-10-05T14:24:49.179Z,23.55
2022-10-05T14:27:30.922Z,23.53
2022-10-05T14:30:12.793Z,23.58
2022-10-05T14:33:03.779Z,23.61
2022-10-05T14:35:51.835Z,23.62
2022-10-05T14:38:21.869Z,23.60
2022-10-05T14:41:27.574Z,23.60
2022-10-05T14:44:04.795Z,23.60
2022-10-05T14:46:34.761Z,23.61
2022-10-05T14:49:37.255Z,23.48
2022-10-05T14:53:18.011Z,23.42
2022-10-05T14:56:17.201Z,23.43
2022-10-05T14:59:15.274Z,23.46
2022-10-05T15:01:54.823Z,23.51
2022-10-05T15:04:52.064Z,23.53
2022-10-05T15:07:38.851Z,23.54
2022-10-05T15:10:32.775Z,23.54
2022-10-05T15:13:15.993Z,23.42
2022-10-05T15:15:54.902Z,23.50
2022-10-05T15:18:51.354Z,23.41
2022-10-05T15:22:07.214Z,23.39
2022-10-05T15:24:50.434Z,23.40
2022-10-05T15:28:01.013Z,23.40
2022-10-05T15:30:28.203Z,23.37
2022-10-05T15:33:20.412Z,23.29
2022-10-05T15:36:22.792Z,23.34
2022-10-05T15:39:10.849Z,23.30
2022-10-05T15:42:02.023Z,23.25
2022-10-05T15:45:02.245Z,23.21
2022-10-05T15:47:59.935Z,23.22
2022-10-05T15:50:35.689Z,23.13
2022-10-05T15:53:23.487Z,23.13
2022-10-05T15:56:03.672Z,23.07
2022-10-05T15:58:42.279Z,23.04
2022-10-05T16:01:31.092Z,23.01
2022-10-05T16:04:39.034Z,22.98
2022-10-05T16:07:38.592Z,22.95
2022-10-05T16:10:23.339Z,22.93
2022-10-05T16:13:20.811Z,22.92
2022-10-05T16:16:21.039Z,22.83
2022-10-05T16:19:11.009Z,22.80
2022-10-05T16:22:18.850Z,22.75
2022-10-05T16:25:09.218Z,22.61
2022-10-05T16:28:14.420Z,22.56
2022-10-05T16:31:21.960Z,22.45
2022-10-05T16:34:01.196Z,22.31
2022-10-05T16:36:52.417Z,22.23
2022-10-05T16:39:48.684Z,22.13
2022-10-05T16:42:34.738Z,22.01
2022-10-05T16:45:57.452Z,21.85
2022-10-05T16:48:34.174Z,21.74
2022-10-05T16:51:41.899Z,21.59
2022-10-05T16:54:23.490Z,21.49
2022-10-05T16:56:59.313Z,21.41
2022-10-05T16:59:45.478Z,21.34
2022-10-05T17:02:56.704Z,21.25
2022-10-05T17:06:24.821Z,21.17
2022-10-05T17:09:38.220Z,21.11
2022-10-05T17:12:57.904Z,21.03
2022-10-05T17:15:55.710Z,21.01
2022-10-05T17:19:06.274Z,20.97
2022-10-05T17:21:55.133Z,20.89
2022-10-05T17:25:04.743Z,20.84
2022-10-05T17:27:51.109Z,20.83
2022-10-05T17:30:27.352Z,20.76
2022-10-05T17:33:13.926Z,20.72
2022-10-05T17:36:00.814Z,20.67
2022-10-05T17:38:50.644Z,20.63
2022-10-05T17:41:22.850Z,20.60
2022-10-05T17:44:20.841Z,20.56
2022-10-05T17:47:02.868Z,20.52
2022-10-05T17:50:16.230Z,20.48
2022-10-05T17:53:03.356Z,20.44
2022-10-05T17:55:33.964Z,20.39
2022-10-05T17:58:23.990Z,20.35
2022-10-05T18:00:57.217Z,20.30
2022-10-05T18:03:48.025Z,20.26
2022-10-05T18:06:37.287Z,20.20
2022-10-05T18:09:17.274Z,20.19
2022-10-05T18:11:49.194Z,20.15
2022-10-05T18:14:24.766Z,20.12
2022-10-05T18:17:12.097Z,20.09
2022-10-05T18:19:39.529Z,20.06
2022-10-05T18:22:15.553Z,20.02
2022-10-05T18:25:05.874Z,19.99
2022-10-05T18:28:27.091Z,19.94
2022-10-05T18:31:20.996Z,19.89
2022-10-05T18:34:03.361Z,19.83
2022-10-05T18:36:38.075Z,19.78
2022-10-05T18:39:35.392Z,19.73
2022-10-05T18:42:24.526Z,19.68
2022-10-05T18:45:20.407Z,19.62
2022-10-05T18:47:52.643Z,19.55
2022-10-05T18:50:43.916Z,19.51
2022-10-05T18:53:13.461Z,19.49
2022-10-05T18:56:24.757Z,19.43
2022-10-05T18:59:20.611Z,19.38
2022-10-05T19:02:19.883Z,19.33
2022-10-05T19:05:48.776Z,19.29
2022-10-05T19:09:03.382Z,19.21
2022-10-05T19:11:51.133Z,19.15
2022-10-05T19:14:37.321Z,19.08
2022-10-05T19:17:10.151Z,19.04
2022-10-05T19:20:08.785Z,19.01
2022-10-05T19:23:09.327Z,18.97
2022-10-05T19:25:52.989Z,18.93
2022-10-05T19:28:58.475Z,18.89
2022-10-05T19:31:50.123Z,18.83
2022-10-05T19:34:49.684Z,18.78
2022-10-05T19:37:25.669Z,18.74
2022-10-05T19:40:07.248Z,18.71
2022-10-05T19:43:23.808Z,18.65
2022-10-05T19:46:06.053Z,18.61
2022-10-05T19:48:44.487Z,18.57
2022-10-05T19:51:29.226Z,18.54
2022-10-05T19:54:25.753Z,18.49
2022-10-05T19:56:55.645Z,18.46
2022-10-05T19:59:27.875Z,18.42
2022-10-05T20:01:57.883Z,18.41
2022-10-05T20:04:37.158Z,18.37
2022-10-05T20:07:04.895Z,18.35
2022-10-05T20:09:59.394Z,18.29
2022-10-05T20:12:59.480Z,18.26
2022-10-05T20:15:51.899Z,18.24
2022-10-05T20:18:56.906Z,18.20
2022-10-05T20:21:50.707Z,18.16
2022-10-05T20:24:23.529Z,18.13
2022-10-05T20:27:06.368Z,18.11
2022-10-05T20:29:35.842Z,18.09
2022-10-05T20:32:17.924Z,18.05
2022-10-05T20:34:47.705Z,18.05
2022-10-05T20:37:18.131Z,18.02
2022-10-05T20:39:45.480Z,18.01
2022-10-05T20:42:12.471Z,18.00
2022-10-05T20:44:39.921Z,17.98
2022-10-05T20:47:09.550Z,17.95
2022-10-05T20:49:39.025Z,17.95
2022-10-05T20:52:10.082Z,17.93
2022-10-05T20:54:39.133Z,17.91
2022-10-05T20:57:06.891Z,17.89
2022-10-05T20:59:35.550Z,17.86
2022-10-05T21:02:03.846Z,17.87
2022-10-05T21:04:40.014Z,17.84
2022-10-05T21:07:08.135Z,17.82
2022-10-05T21:09:37.887Z,17.80
2022-10-05T21:12:04.848Z,17.78
2022-10-05T21:14:34.144Z,17.75
2022-10-05T21:17:01.899Z,17.72
2022-10-05T21:19:29.891Z,17.70
2022-10-05T21:22:02.386Z,17.68
2022-10-05T21:24:29.339Z,17.64
2022-10-05T21:26:57.440Z,17.62
2022-10-05T21:29:24.491Z,17.60
2022-10-05T21:31:51.682Z,17.58
2022-10-05T21:34:18.748Z,17.55
2022-10-05T21:36:45.961Z,17.53
2022-10-05T21:39:12.976Z,17.50
2022-10-05T21:41:39.961Z,17.48
2022-10-05T21:44:06.932Z,17.46
2022-10-05T21:46:36.664Z,17.43
2022-10-05T21:49:05.164Z,17.42
2022-10-05T21:51:33.602Z,17.39
2022-10-05T21:54:06.558Z,17.35
2022-10-05T21:56:38.598Z,17.34
2022-10-05T21:59:09.435Z,17.31
2022-10-05T22:01:36.519Z,17.28
2022-10-05T22:04:05.092Z,17.28
2022-10-05T22:06:33.638Z,17.26
2022-10-05T22:09:00.894Z,17.24
2022-10-05T22:11:28.956Z,17.22
2022-10-05T22:14:02.320Z,17.21
2022-10-05T22:16:33.366Z,17.19
2022-10-05T22:19:06.499Z,17.17
2022-10-05T22:21:38.119Z,17.16
2022-10-05T22:24:05.497Z,17.14
2022-10-05T22:26:34.703Z,17.12
2022-10-05T22:29:02.469Z,17.10
2022-10-05T22:31:29.565Z,17.08
2022-10-05T22:33:56.701Z,17.07
2022-10-05T22:36:23.737Z,17.04
2022-10-05T22:38:50.773Z,17.00
2022-10-05T22:41:18.396Z,16.98
2022-10-05T22:43:49.978Z,16.95
2022-10-05T22:46:17.570Z,16.93
2022-10-05T22:48:44.617Z,16.90
2022-10-05T22:51:11.592Z,16.88
2022-10-05T22:53:38.738Z,16.85
2022-10-05T22:56:12.011Z,16.83
2022-10-05T22:58:40.833Z,16.79
2022-10-05T23:01:11.438Z,16.77
2022-10-05T23:03:39.017Z,16.75
2022-10-05T23:06:10.173Z,16.72
2022-10-05T23:08:39.121Z,16.70
2022-10-05T23:11:12.432Z,16.68
2022-10-05T23:13:40.423Z,16.66
2022-10-05T23:16:11.556Z,16.65
2022-10-05T23:18:39.307Z,16.65
2022-10-05T23:21:08.416Z,16.63
2022-10-05T23:23:41.419Z,16.59
2022-10-05T23:26:10.591Z,16.57
2022-10-05T23:28:46.928Z,16.53
2022-10-05T23:31:17.411Z,16.51
2022-10-05T23:33:45.049Z,16.51
2022-10-05T23:36:28.103Z,16.50
2022-10-05T23:38:55.046Z,16.49
2022-10-05T23:41:22.274Z,16.49
2022-10-05T23:43:49.267Z,16.49
2022-10-05T23:46:17.595Z,16.47
2022-10-05T23:48:44.651Z,16.47
2022-10-05T23:51:13.586Z,16.46
2022-10-05T23:53:40.575Z,16.46
2022-10-05T23:56:07.837Z,16.45
2022-10-05T23:58:34.771Z,16.43
